Time;durP1;ratioP1;P1;durP2;ratioP2;P2;SDS_P1;SDS_P2;PMS_P1;PMS_P2;Temp;Humidity;BMP_temperature;BMP_pressure;BME280_temperature;BME280_humidity;BME280_pressure;Samples;Min_cycle;Max_cycle;Signal;HPM_P1;HPM_P2
2023/01/09 00:00:51;;;;;;;59.20;31.60;;;;;;;4.70;86.09;99212.80;131085;1256;107409;-72
2023/01/09 00:04:03;;;;;;;59.70;27.70;;;;;;;4.69;85.93;99212.09;131089;1250;107479;-72
2023/01/09 00:07:09;;;;;;;43.00;22.10;;;;;;;4.68;85.93;99218.77;131103;1250;107356;-73
2023/01/09 00:10:14;;;;;;;48.80;24.70;;;;;;;4.62;86.21;99219.48;131311;1254;107541;-70
2023/01/09 00:13:20;;;;;;;42.90;22.00;;;;;;;4.62;86.23;99221.27;131221;1261;107217;-70
2023/01/09 00:16:26;;;;;;;41.70;22.00;;;;;;;4.65;86.22;99214.64;131283;1256;106103;-70
2023/01/09 00:19:31;;;;;;;42.90;23.60;;;;;;;4.70;86.24;99210.63;131274;1255;107633;-71
2023/01/09 00:22:37;;;;;;;45.50;24.60;;;;;;;4.72;86.10;99214.14;131301;1258;107256;-71
2023/01/09 00:25:43;;;;;;;38.90;21.70;;;;;;;4.74;86.27;99211.02;131092;1250;107561;-72
2023/01/09 00:28:50;;;;;;;40.50;21.80;;;;;;;4.73;86.12;99206.16;131069;1250;107486;-71
2023/01/09 00:31:56;;;;;;;43.20;20.90;;;;;;;4.71;86.22;99199.09;131288;1254;107563;-70
2023/01/09 00:35:02;;;;;;;49.70;26.50;;;;;;;4.71;86.16;99192.77;131186;1253;108370;-74
2023/01/09 00:38:07;;;;;;;51.20;26.40;;;;;;;4.69;86.21;99188.52;131307;1256;107487;-71
2023/01/09 00:41:16;;;;;;;75.50;40.40;;;;;;;4.70;86.31;99191.05;131164;1253;107496;-71
2023/01/09 00:44:26;;;;;;;54.30;27.30;;;;;;;4.74;86.18;99187.95;130924;1256;107424;-73
2023/01/09 00:47:36;;;;;;;56.20;28.20;;;;;;;4.75;86.27;99186.80;131025;1255;109167;-71
2023/01/09 00:50:42;;;;;;;43.20;22.90;;;;;;;4.75;86.15;99184.64;130960;1256;107521;-73
2023/01/09 00:53:50;;;;;;;49.20;26.50;;;;;;;4.74;86.08;99179.98;131077;1274;107431;-73
2023/01/09 00:56:57;;;;;;;41.50;21.20;;;;;;;4.69;86.22;99176.25;131247;1250;107517;-71
2023/01/09 01:00:03;;;;;;;38.80;21.00;;;;;;;4.67;86.22;99173.77;131276;1272;107260;-71
2023/01/09 01:03:09;;;;;;;41.10;21.20;;;;;;;4.67;86.25;99174.45;131248;1251;107350;-71
2023/01/09 01:09:38;;;;;;;39.90;22.80;;;;;;;4.70;86.27;99171.38;130990;1256;107502;-74
2023/01/09 01:12:44;;;;;;;41.00;21.60;;;;;;;4.69;86.16;99173.54;131102;1254;108691;-71
2023/01/09 01:15:49;;;;;;;39.90;22.30;;;;;;;4.70;86.40;99175.60;131009;1256;109249;-73
2023/01/09 01:18:55;;;;;;;40.70;22.50;;;;;;;4.69;86.48;99173.52;131179;1272;106544;-71
2023/01/09 01:22:01;;;;;;;41.70;21.20;;;;;;;4.68;86.39;99166.59;131261;1255;107514;-71
2023/01/09 01:25:07;;;;;;;44.40;24.90;;;;;;;4.68;86.30;99167.66;131147;1254;107505;-71
2023/01/09 01:28:12;;;;;;;41.80;21.90;;;;;;;4.71;86.45;99161.98;131306;1250;106433;-70
2023/01/09 01:31:19;;;;;;;42.90;22.10;;;;;;;4.75;86.33;99154.59;131148;1256;107467;-70
2023/01/09 01:34:25;;;;;;;48.40;25.70;;;;;;;4.79;86.27;99151.66;131066;1254;107399;-73
2023/01/09 01:37:31;;;;;;;47.20;22.60;;;;;;;4.82;86.50;99147.88;131198;1251;107598;-73
2023/01/09 01:40:39;;;;;;;42.30;22.20;;;;;;;4.84;86.28;99149.45;131219;1253;107683;-73
2023/01/09 01:43:57;;;;;;;44.30;23.40;;;;;;;4.85;86.30;99145.71;131088;1272;107386;-70
2023/01/09 01:47:02;;;;;;;42.10;22.10;;;;;;;4.82;86.20;99138.33;131183;1256;107411;-71
2023/01/09 01:50:15;;;;;;;39.20;20.50;;;;;;;4.78;86.32;99135.09;131231;1254;108577;-72
2023/01/09 01:53:24;;;;;;;37.00;19.20;;;;;;;4.76;86.42;99129.25;131120;1257;108435;-73
2023/01/09 01:56:35;;;;;;;39.50;21.40;;;;;;;4.80;86.45;99128.90;130977;1256;107627;-74
2023/01/09 01:59:48;;;;;;;42.20;22.20;;;;;;;4.82;86.18;99128.48;130961;1256;107402;-74
2023/01/09 02:02:54;;;;;;;45.30;22.90;;;;;;;4.84;86.35;99119.85;130988;1256;107434;-74
2023/01/09 02:06:00;;;;;;;44.90;23.70;;;;;;;4.83;86.37;99114.33;131047;1256;107362;-73
2023/01/09 02:09:07;;;;;;;47.60;24.50;;;;;;;4.81;86.24;99111.02;130997;1264;109272;-73
2023/01/09 02:12:22;;;;;;;43.00;22.30;;;;;;;4.78;86.35;99111.41;131067;1264;107424;-74
2023/01/09 02:15:35;;;;;;;43.20;22.70;;;;;;;4.76;86.40;99112.02;131038;1255;107558;-73
2023/01/09 02:18:50;;;;;;;44.70;23.90;;;;;;;4.78;86.32;99108.16;131028;1256;108041;-72
2023/01/09 02:22:07;;;;;;;48.60;24.40;;;;;;;4.82;86.54;99107.36;131057;1253;109309;-73
2023/01/09 02:25:42;;;;;;;48.90;25.90;;;;;;;4.85;86.44;99110.77;131168;1264;107508;-74
2023/01/09 02:29:22;;;;;;;44.80;23.30;;;;;;;4.89;86.46;99108.29;131003;1255;106991;-72
2023/01/09 02:32:40;;;;;;;41.70;22.60;;;;;;;4.92;86.28;99112.36;131096;1263;107273;-72
2023/01/09 02:35:58;;;;;;;39.70;21.20;;;;;;;4.91;86.28;99110.91;131229;1256;107517;-72
2023/01/09 02:39:21;;;;;;;37.90;20.30;;;;;;;4.89;86.25;99106.70;131171;1255;108884;-72
2023/01/09 02:42:27;;;;;;;40.80;21.10;;;;;;;4.88;86.30;99102.42;131167;1263;107580;-72
2023/01/09 02:45:32;;;;;;;38.60;20.70;;;;;;;4.91;86.60;99097.17;131260;1257;107565;-73
2023/01/09 02:48:38;;;;;;;37.30;21.90;;;;;;;4.97;86.65;99090.05;131133;1256;107362;-72
2023/01/09 02:51:53;;;;;;;43.60;24.00;;;;;;;5.03;86.44;99082.43;130947;1256;106563;-73
2023/01/09 02:55:09;;;;;;;37.50;21.10;;;;;;;5.05;86.18;99078.54;130968;1256;108663;-72
2023/01/09 02:58:23;;;;;;;37.60;21.10;;;;;;;5.08;86.19;99073.73;131054;1253;109777;-72
2023/01/09 03:01:36;;;;;;;39.20;22.60;;;;;;;5.06;86.23;99074.96;131043;1256;107369;-73
2023/01/09 03:04:50;;;;;;;37.50;21.40;;;;;;;5.04;86.32;99069.02;131142;1263;107510;-75
2023/01/09 03:08:02;;;;;;;36.60;20.00;;;;;;;5.01;86.31;99060.98;131204;1252;107573;-74
2023/01/09 03:11:10;;;;;;;35.60;20.20;;;;;;;4.99;86.30;99060.97;131404;1247;107219;-74
2023/01/09 03:14:20;;;;;;;35.80;19.90;;;;;;;4.99;86.35;99052.70;131422;1252;105890;-74
2023/01/09 03:17:29;;;;;;;37.70;20.70;;;;;;;5.03;86.64;99051.27;131419;1255;107421;-73
2023/01/09 03:20:37;;;;;;;37.00;20.40;;;;;;;5.06;86.54;99060.69;131460;1253;107548;-73
2023/01/09 03:23:50;;;;;;;36.20;21.50;;;;;;;5.09;86.44;99048.60;131414;1257;106574;-72
2023/01/09 03:26:55;;;;;;;42.40;22.40;;;;;;;5.10;86.27;99037.87;131493;1253;108142;-73
2023/01/09 03:30:01;;;;;;;40.50;22.30;;;;;;;5.10;86.33;99034.56;131379;1260;107522;-73
2023/01/09 03:33:06;;;;;;;34.30;19.70;;;;;;;5.08;86.49;99031.09;131388;1260;107427;-72
2023/01/09 03:36:14;;;;;;;38.20;21.00;;;;;;;5.06;86.51;99026.69;131353;1260;107497;-71
2023/01/09 03:39:20;;;;;;;33.90;19.30;;;;;;;5.06;86.52;99025.45;131381;1253;107371;-74
2023/01/09 03:42:25;;;;;;;37.50;20.80;;;;;;;5.10;86.46;99026.23;131442;1258;107497;-73
2023/01/09 03:45:31;;;;;;;37.70;21.10;;;;;;;5.14;86.65;99019.02;131418;1255;107957;-73
2023/01/09 03:48:36;;;;;;;35.40;20.70;;;;;;;5.13;86.42;99021.40;131466;1252;108559;-72
2023/01/09 03:51:42;;;;;;;37.70;22.10;;;;;;;5.14;86.40;99023.27;131447;1254;107509;-72
2023/01/09 03:54:47;;;;;;;38.80;22.00;;;;;;;5.13;86.25;99022.85;131462;1253;108090;-72
2023/01/09 03:57:53;;;;;;;34.80;19.30;;;;;;;5.08;86.19;99020.63;131452;1254;106693;-74
2023/01/09 04:01:02;;;;;;;35.90;19.70;;;;;;;5.04;86.37;99018.09;131467;1253;107606;-73
2023/01/09 04:04:08;;;;;;;33.10;18.80;;;;;;;5.02;86.52;99012.27;131461;1254;107508;-72
2023/01/09 04:07:13;;;;;;;37.70;21.10;;;;;;;5.03;86.63;99017.63;131384;1252;107447;-71
2023/01/09 04:10:19;;;;;;;37.20;21.00;;;;;;;5.06;86.55;99020.50;131369;1253;107523;-74
2023/01/09 04:13:25;;;;;;;36.00;21.50;;;;;;;5.08;86.34;99018.73;131410;1257;107517;-72
2023/01/09 04:16:30;;;;;;;35.40;21.30;;;;;;;5.06;86.43;99014.52;131410;1248;107310;-72
2023/01/09 04:19:36;;;;;;;37.30;21.80;;;;;;;5.04;86.45;99017.73;131373;1253;107537;-74
2023/01/09 04:22:41;;;;;;;39.20;22.70;;;;;;;4.99;86.32;99013.41;131407;1270;107191;-73
2023/01/09 04:25:47;;;;;;;36.80;20.30;;;;;;;4.94;86.43;99009.10;131314;1247;108389;-72
2023/01/09 04:28:53;;;;;;;35.00;19.80;;;;;;;4.89;86.55;99009.96;131377;1252;109378;-74
2023/01/09 04:31:58;;;;;;;36.30;20.50;;;;;;;4.87;86.63;99004.02;131370;1260;107519;-74
2023/01/09 04:35:05;;;;;;;36.40;21.50;;;;;;;4.86;86.67;99003.08;131460;1248;107672;-72
2023/01/09 04:38:10;;;;;;;36.60;21.60;;;;;;;4.86;86.63;99000.96;131425;1260;107648;-71
2023/01/09 04:41:47;;;;;;;36.00;21.00;;;;;;;4.85;86.76;98999.10;131319;1254;107402;-72
2023/01/09 04:44:41;;;;;;;36.40;22.10;;;;;;;4.83;86.49;98992.71;131413;1248;107561;-71
2023/01/09 04:47:47;;;;;;;36.40;22.00;;;;;;;4.79;86.45;98992.43;131375;1253;107546;-74
2023/01/09 04:50:53;;;;;;;37.30;22.00;;;;;;;4.71;86.45;98994.58;131366;1253;107364;-70
2023/01/09 04:53:58;;;;;;;35.80;20.40;;;;;;;4.66;86.47;98995.73;131232;1260;108003;-74
2023/01/09 04:57:04;;;;;;;33.40;19.80;;;;;;;4.64;86.70;98997.23;131417;1260;107497;-73
2023/01/09 05:00:11;;;;;;;36.40;21.30;;;;;;;4.64;86.50;98994.77;131445;1253;107545;-73
2023/01/09 05:03:17;;;;;;;37.20;21.70;;;;;;;4.64;86.62;98991.43;131512;1252;108247;-73
2023/01/09 05:06:23;;;;;;;36.00;22.50;;;;;;;4.59;86.50;98981.63;131456;1254;107537;-73
2023/01/09 05:09:28;;;;;;;39.10;23.00;;;;;;;4.56;86.64;98980.54;131440;1253;108498;-73
2023/01/09 05:12:35;;;;;;;39.80;22.90;;;;;;;4.52;86.58;98981.11;131453;1251;106672;-71
2023/01/09 05:15:40;;;;;;;40.00;21.90;;;;;;;4.46;86.63;98975.34;131382;1253;107576;-72
2023/01/09 05:18:46;;;;;;;36.80;21.70;;;;;;;4.40;86.76;98971.81;131360;1260;107633;-72
2023/01/09 05:21:51;;;;;;;36.60;20.80;;;;;;;4.39;86.87;98965.80;131422;1254;107511;-72
2023/01/09 05:24:57;;;;;;;39.90;23.10;;;;;;;4.39;86.77;98963.49;131408;1253;108687;-73
2023/01/09 05:28:03;;;;;;;40.70;22.90;;;;;;;4.38;86.79;98962.89;131406;1264;107287;-71
2023/01/09 05:31:08;;;;;;;38.80;22.20;;;;;;;4.37;86.69;98961.04;131458;1259;107724;-72
2023/01/09 05:34:14;;;;;;;36.70;22.30;;;;;;;4.34;86.71;98958.13;131502;1252;107577;-73
2023/01/09 05:37:19;;;;;;;39.40;23.90;;;;;;;4.29;86.88;98949.80;131450;1248;107496;-73
2023/01/09 05:40:25;;;;;;;41.50;24.20;;;;;;;4.26;86.88;98950.77;131417;1248;107419;-73
2023/01/09 05:43:31;;;;;;;38.00;22.00;;;;;;;4.23;86.85;98951.94;131348;1256;107751;-73
2023/01/09 05:46:36;;;;;;;34.80;21.10;;;;;;;4.22;86.90;98952.92;131447;1257;107731;-72
2023/01/09 05:49:42;;;;;;;37.10;22.70;;;;;;;4.22;86.95;98950.25;131471;1251;107538;-72
2023/01/09 05:52:47;;;;;;;37.30;22.60;;;;;;;4.22;86.90;98946.41;131442;1253;107505;-72
2023/01/09 05:55:53;;;;;;;39.70;23.60;;;;;;;4.21;86.98;98945.24;131466;1270;107238;-71
2023/01/09 05:58:58;;;;;;;41.70;24.90;;;;;;;4.19;87.00;98942.88;131475;1253;107527;-73
2023/01/09 06:02:04;;;;;;;40.70;24.00;;;;;;;4.14;87.02;98944.86;131444;1254;106754;-72
2023/01/09 06:05:10;;;;;;;40.00;23.70;;;;;;;4.10;87.15;98949.06;131419;1252;107542;-74
2023/01/09 06:08:16;;;;;;;39.10;22.30;;;;;;;4.06;87.16;98951.91;131606;1253;107274;-72
2023/01/09 06:11:21;;;;;;;34.40;20.80;;;;;;;4.05;87.16;98939.35;131486;1248;107195;-71
2023/01/09 06:14:27;;;;;;;40.10;23.90;;;;;;;4.07;87.13;98935.30;131566;1251;107425;-70
2023/01/09 06:17:32;;;;;;;37.60;23.30;;;;;;;4.11;87.35;98927.55;131394;1257;107337;-73
2023/01/09 06:20:38;;;;;;;41.50;25.20;;;;;;;4.13;87.30;98916.11;131405;1254;108608;-82
2023/01/09 06:23:44;;;;;;;48.40;26.70;;;;;;;4.13;87.31;98911.19;131277;1251;107704;-75
2023/01/09 06:26:49;;;;;;;45.70;26.50;;;;;;;4.10;87.18;98909.30;131290;1253;106563;-73
2023/01/09 06:29:55;;;;;;;46.10;25.40;;;;;;;4.06;87.26;98907.92;131370;1254;107506;-76
2023/01/09 06:33:03;;;;;;;47.20;25.30;;;;;;;4.03;87.24;98908.61;131506;1248;107336;-73
2023/01/09 06:36:09;;;;;;;41.50;23.30;;;;;;;4.01;87.48;98910.39;131650;1250;107512;-77
2023/01/09 06:39:15;;;;;;;67.10;43.20;;;;;;;4.02;87.53;98911.33;131495;1254;107446;-72
2023/01/09 06:42:20;;;;;;;47.50;29.40;;;;;;;4.05;87.61;98914.24;131478;1260;107520;-79
2023/01/09 06:45:26;;;;;;;42.10;25.90;;;;;;;4.05;87.43;98910.85;131478;1248;107640;-77
2023/01/09 06:48:31;;;;;;;44.00;27.10;;;;;;;4.06;87.37;98910.63;131549;1248;107570;-76
2023/01/09 06:51:37;;;;;;;41.00;26.10;;;;;;;4.06;87.51;98907.23;131581;1248;107447;-80
2023/01/09 06:54:43;;;;;;;42.80;24.40;;;;;;;4.05;87.27;98909.83;131559;1259;107546;-76
2023/01/09 06:57:48;;;;;;;42.60;24.80;;;;;;;4.04;87.50;98911.49;131539;1260;107437;-74
2023/01/09 07:00:54;;;;;;;38.80;21.20;;;;;;;4.04;87.48;98912.52;131478;1248;107484;-74
2023/01/09 07:04:00;;;;;;;40.50;24.60;;;;;;;4.08;87.55;98913.23;131545;1248;107409;-76
2023/01/09 07:07:05;;;;;;;43.00;25.20;;;;;;;4.12;87.49;98912.30;131440;1252;107517;-77
2023/01/09 07:10:14;;;;;;;44.20;25.50;;;;;;;4.15;87.49;98913.64;131406;1247;107214;-79
2023/01/09 07:13:19;;;;;;;41.90;26.50;;;;;;;4.15;87.46;98912.75;131503;1251;107464;-79
2023/01/09 07:16:37;;;;;;;41.70;25.80;;;;;;;4.16;87.62;98909.13;131670;1250;107470;-80
2023/01/09 07:19:48;;;;;;;42.70;24.20;;;;;;;4.17;87.63;98904.64;131444;1251;108191;-80
2023/01/09 07:22:56;;;;;;;41.30;23.40;;;;;;;4.19;87.69;98896.35;131477;1253;110038;-78
2023/01/09 07:26:02;;;;;;;36.70;22.20;;;;;;;4.23;87.68;98898.02;131525;1248;106553;-77
2023/01/09 07:29:08;;;;;;;41.50;25.30;;;;;;;4.29;87.74;98897.86;131583;1248;107561;-76
2023/01/09 07:32:14;;;;;;;41.30;25.20;;;;;;;4.35;87.72;98893.58;131756;1248;107394;-75
2023/01/09 07:35:19;;;;;;;44.10;26.90;;;;;;;4.42;87.60;98897.48;131448;1247;107043;-77
2023/01/09 07:38:25;;;;;;;46.70;28.00;;;;;;;4.48;87.58;98895.00;131434;1250;105809;-77
2023/01/09 07:41:31;;;;;;;42.30;26.80;;;;;;;4.51;87.65;98890.27;131373;1251;107530;-79
2023/01/09 07:44:36;;;;;;;46.10;27.10;;;;;;;4.53;87.75;98890.59;131525;1251;107622;-73
2023/01/09 07:47:42;;;;;;;43.00;25.10;;;;;;;4.55;87.73;98886.90;131441;1251;107520;-74
2023/01/09 07:50:48;;;;;;;38.40;23.40;;;;;;;4.59;87.82;98884.43;131434;1258;107509;-74
2023/01/09 07:53:53;;;;;;;39.30;24.50;;;;;;;4.64;87.76;98886.58;131347;1251;107607;-75
2023/01/09 07:56:59;;;;;;;40.20;25.00;;;;;;;4.72;87.89;98887.97;131434;1251;107530;-72
2023/01/09 08:00:09;;;;;;;40.90;25.10;;;;;;;4.78;87.75;98880.17;131425;1250;107247;-74
2023/01/09 08:03:18;;;;;;;41.60;25.30;;;;;;;4.83;87.75;98885.97;131834;1248;107562;-75
2023/01/09 08:06:24;;;;;;;40.60;26.30;;;;;;;4.85;87.76;98880.98;131502;1248;108903;-77
2023/01/09 08:09:30;;;;;;;46.30;26.90;;;;;;;4.88;87.75;98878.46;131408;1252;107556;-76
2023/01/09 08:12:35;;;;;;;47.00;26.10;;;;;;;4.93;87.99;98876.73;131395;1260;106090;-75
2023/01/09 08:15:41;;;;;;;40.80;23.70;;;;;;;4.99;87.89;98872.08;131422;1253;107492;-74
2023/01/09 08:18:51;;;;;;;38.80;24.00;;;;;;;5.06;88.01;98872.25;131439;1248;107291;-78
2023/01/09 08:21:56;;;;;;;41.70;24.80;;;;;;;5.16;87.91;98872.17;131464;1248;107390;-78
2023/01/09 08:25:02;;;;;;;43.40;27.40;;;;;;;5.25;87.85;98865.33;131350;1251;146824;-76
2023/01/09 08:28:09;;;;;;;101.30;66.00;;;;;;;5.30;87.70;98859.08;131436;1248;107514;-75
2023/01/09 08:31:14;;;;;;;71.20;48.10;;;;;;;5.36;87.76;98850.07;131485;1253;107622;-73
2023/01/09 08:34:20;;;;;;;44.60;28.80;;;;;;;5.39;87.62;98845.52;131574;1250;107509;-74
2023/01/09 08:37:25;;;;;;;40.50;26.20;;;;;;;5.43;87.68;98846.85;131593;1248;108469;-75
2023/01/09 08:40:31;;;;;;;43.00;28.00;;;;;;;5.45;87.67;98847.16;131567;1250;106407;-74
2023/01/09 08:47:05;;;;;;;38.10;26.20;;;;;;;5.61;87.93;98841.67;131420;1250;107585;-72
2023/01/09 08:50:12;;;;;;;41.40;28.00;;;;;;;5.69;87.82;98846.05;131696;1248;107249;-71
2023/01/09 08:53:17;;;;;;;49.80;35.00;;;;;;;5.74;87.66;98849.82;131555;1251;105605;-73
2023/01/09 08:56:23;;;;;;;45.60;30.20;;;;;;;5.78;87.70;98847.95;131485;1248;107584;-74
2023/01/09 08:59:29;;;;;;;46.50;27.30;;;;;;;5.80;87.69;98850.52;131557;1247;106760;-73
2023/01/09 09:02:34;;;;;;;40.80;24.00;;;;;;;5.82;87.63;98853.48;131536;1248;107627;-77
2023/01/09 09:05:40;;;;;;;45.00;27.80;;;;;;;5.84;87.68;98846.09;131469;1248;108666;-78
2023/01/09 09:08:45;;;;;;;41.90;28.50;;;;;;;5.90;87.74;98851.99;131617;1248;107409;-76
2023/01/09 09:11:51;;;;;;;42.40;28.10;;;;;;;5.96;87.71;98853.60;131329;1248;107402;-76
2023/01/09 09:15:22;;;;;;;63.70;35.30;;;;;;;5.99;87.74;98850.78;131503;1250;107467;-72
2023/01/09 09:18:27;;;;;;;44.30;26.00;;;;;;;5.98;87.59;98855.84;131544;1251;107433;-74
2023/01/09 09:21:33;;;;;;;76.30;38.10;;;;;;;5.95;87.54;98847.45;131512;1247;107386;-73
2023/01/09 09:24:39;;;;;;;50.50;27.10;;;;;;;5.93;87.59;98847.34;131584;1251;105824;-77
2023/01/09 09:27:44;;;;;;;66.80;32.10;;;;;;;5.89;87.50;98849.94;131535;1258;107545;-76
2023/01/09 09:30:50;;;;;;;50.70;28.50;;;;;;;5.90;87.85;98853.39;131420;1251;107416;-74
2023/01/09 09:33:56;;;;;;;58.80;30.30;;;;;;;5.94;87.68;98853.26;131528;1248;107463;-76
2023/01/09 09:37:01;;;;;;;40.70;24.60;;;;;;;5.95;87.63;98849.94;131623;1247;107858;-73
2023/01/09 09:40:15;;;;;;;43.10;26.60;;;;;;;5.95;87.58;98846.23;131618;1250;107400;-77
2023/01/09 09:47:21;;;;;;;34.00;22.90;;;;;;;5.92;87.69;98833.61;131426;1251;107607;-73
2023/01/09 09:50:45;;;;;;;47.00;28.30;;;;;;;5.95;87.94;98829.48;131469;1255;107462;-74
2023/01/09 09:53:59;;;;;;;50.00;31.30;;;;;;;6.02;87.98;98818.67;131574;1248;107622;-72
2023/01/09 09:57:06;;;;;;;47.90;30.40;;;;;;;6.13;88.17;98813.43;131565;1251;107452;-73
2023/01/09 10:00:19;;;;;;;39.30;26.20;;;;;;;6.20;87.87;98809.23;131559;1251;107526;-74
2023/01/09 10:03:32;;;;;;;42.30;28.60;;;;;;;6.25;87.61;98807.28;131514;1246;107522;-72
2023/01/09 10:06:43;;;;;;;38.30;26.40;;;;;;;6.26;87.72;98804.84;131552;1251;107396;-72
2023/01/09 10:09:53;;;;;;;38.90;25.60;;;;;;;6.28;87.73;98809.81;131464;1253;107524;-73
2023/01/09 10:14:03;;;;;;;36.50;23.00;;;;;;;6.24;87.84;98807.88;131388;1250;107392;-74
2023/01/09 10:16:39;;;;;;;34.70;22.30;;;;;;;6.24;87.78;98806.15;131393;1250;108611;-72
2023/01/09 10:20:04;;;;;;;34.70;23.40;;;;;;;6.26;88.06;98800.64;131459;1248;107217;-73
2023/01/09 10:23:45;;;;;;;33.20;23.10;;;;;;;6.33;88.23;98798.88;131342;1247;107252;-73
2023/01/09 10:26:53;;;;;;;34.30;23.20;;;;;;;6.40;88.19;98792.25;130983;1266;106740;-73
2023/01/09 10:30:09;;;;;;;34.10;23.00;;;;;;;6.44;88.46;98790.27;131389;1248;107268;-74
2023/01/09 10:33:30;;;;;;;34.10;23.90;;;;;;;6.46;88.10;98779.81;131556;1250;107503;-72
2023/01/09 10:36:58;;;;;;;32.30;22.50;;;;;;;6.48;88.41;98777.50;131567;1251;107273;-74
2023/01/09 10:40:14;;;;;;;30.30;20.20;;;;;;;6.53;88.26;98767.64;131536;1251;107396;-75
2023/01/09 10:43:31;;;;;;;32.30;21.80;;;;;;;6.60;88.61;98760.62;131487;1250;107606;-71
2023/01/09 10:46:43;;;;;;;32.60;21.90;;;;;;;6.69;88.30;98755.16;131476;1253;107504;-73
2023/01/09 10:49:52;;;;;;;31.20;21.40;;;;;;;6.77;88.45;98750.55;131518;1251;107397;-72
2023/01/09 10:52:58;;;;;;;32.40;22.70;;;;;;;6.85;88.44;98738.91;131429;1247;107215;-73
2023/01/09 10:56:11;;;;;;;34.80;23.60;;;;;;;6.87;88.29;98735.70;131421;1247;107427;-73
2023/01/09 10:59:17;;;;;;;31.80;21.90;;;;;;;6.88;88.23;98727.66;131502;1247;107398;-72
2023/01/09 11:02:29;;;;;;;28.90;19.70;;;;;;;6.85;88.26;98724.70;131341;1251;108705;-73
2023/01/09 11:05:35;;;;;;;29.30;20.20;;;;;;;6.87;88.35;98719.77;131652;1247;108623;-72
2023/01/09 11:08:45;;;;;;;29.90;20.50;;;;;;;6.91;88.45;98714.89;131503;1247;108500;-73
2023/01/09 11:11:50;;;;;;;29.70;20.30;;;;;;;6.99;88.60;98710.33;131408;1260;107505;-70
2023/01/09 11:14:56;;;;;;;33.10;22.60;;;;;;;7.06;88.23;98703.21;131313;1250;107202;-72
2023/01/09 11:18:19;;;;;;;28.70;20.40;;;;;;;7.13;88.31;98696.33;131341;1248;107208;-71
2023/01/09 11:21:34;;;;;;;31.00;19.90;;;;;;;7.16;88.50;98694.52;131623;1251;107533;-71
2023/01/09 11:24:40;;;;;;;25.80;16.40;;;;;;;7.16;88.62;98683.89;131363;1247;107400;-72
2023/01/09 11:28:03;;;;;;;24.90;16.80;;;;;;;7.17;88.70;98680.92;131490;1251;108696;-72
2023/01/09 11:31:09;;;;;;;26.30;18.00;;;;;;;7.22;88.87;98673.88;131307;1251;107414;-71
2023/01/09 11:34:21;;;;;;;24.30;17.60;;;;;;;7.24;88.85;98671.13;131131;1252;107286;-71
2023/01/09 11:37:29;;;;;;;26.00;18.20;;;;;;;7.25;88.80;98666.41;131228;1247;107473;-71
2023/01/09 11:40:45;;;;;;;24.00;17.60;;;;;;;7.24;88.94;98666.39;131354;1247;107376;-72
2023/01/09 11:43:53;;;;;;;25.40;18.40;;;;;;;7.24;88.94;98661.24;131591;1250;107638;-79
2023/01/09 11:46:59;;;;;;;24.30;15.70;;;;;;;7.22;89.18;98661.81;131378;1253;107534;-82
2023/01/09 11:50:19;;;;;;;25.20;16.40;;;;;;;7.21;89.08;98659.95;131608;1251;107611;-79
2023/01/09 11:53:26;;;;;;;35.40;21.80;;;;;;;7.23;89.14;98656.43;131420;1247;107231;-81
2023/01/09 11:56:32;;;;;;;34.60;21.40;;;;;;;7.24;89.20;98652.63;131788;1251;108821;-80
2023/01/09 11:59:37;;;;;;;116.90;72.90;;;;;;;7.25;89.20;98652.08;131437;1247;106422;-79
2023/01/09 12:03:02;;;;;;;48.30;32.30;;;;;;;7.26;89.16;98650.77;131295;1251;105759;-74
2023/01/09 12:06:22;;;;;;;32.30;22.20;;;;;;;7.26;89.29;98650.26;131435;1251;107708;-76
2023/01/09 12:09:36;;;;;;;97.50;45.00;;;;;;;7.24;89.21;98648.31;131333;1251;108062;-77
2023/01/09 12:12:53;;;;;;;31.90;19.50;;;;;;;7.24;89.34;98647.27;131361;1250;107547;-73
2023/01/09 12:16:10;;;;;;;49.30;26.90;;;;;;;7.24;89.41;98642.30;131301;1250;107365;-77
2023/01/09 12:19:38;;;;;;;44.00;24.00;;;;;;;7.26;89.40;98641.95;131373;1251;108931;-74
2023/01/09 12:22:50;;;;;;;45.40;24.90;;;;;;;7.28;89.53;98643.80;131447;1247;107293;-76
2023/01/09 12:26:10;;;;;;;68.40;38.80;;;;;;;7.27;89.28;98638.45;131394;1251;108708;-77
2023/01/09 12:29:45;;;;;;;43.40;26.20;;;;;;;7.26;89.63;98633.77;131308;1251;105455;-77
2023/01/09 12:33:02;;;;;;;90.00;39.60;;;;;;;7.24;89.53;98632.56;131452;1252;107513;-78
2023/01/09 12:36:18;;;;;;;47.00;24.30;;;;;;;7.23;89.76;98633.78;131378;1247;107365;-78
2023/01/09 12:39:33;;;;;;;62.30;31.70;;;;;;;7.24;89.95;98634.35;131272;1248;107208;-76
2023/01/09 12:42:50;;;;;;;60.90;31.70;;;;;;;7.27;90.03;98633.67;131404;1267;107375;-83
2023/01/09 12:46:07;;;;;;;69.10;32.00;;;;;;;7.31;89.88;98633.09;131354;1247;108590;-78
2023/01/09 12:49:28;;;;;;;53.00;26.30;;;;;;;7.33;90.12;98632.13;131368;1251;107822;-78
2023/01/09 12:52:39;;;;;;;40.20;20.80;;;;;;;7.34;90.15;98638.42;131486;1253;107569;-77
2023/01/09 12:55:51;;;;;;;63.80;28.90;;;;;;;7.33;90.02;98640.61;131360;1247;108138;-77
2023/01/09 12:59:00;;;;;;;48.20;24.80;;;;;;;7.34;90.19;98637.00;131668;1251;107538;-78
2023/01/09 13:02:19;;;;;;;32.50;21.20;;;;;;;7.37;90.04;98639.28;131590;1246;107759;-76
2023/01/09 13:05:29;;;;;;;62.00;32.30;;;;;;;7.42;89.86;98637.70;131580;1247;107219;-77
2023/01/09 13:08:39;;;;;;;108.90;49.70;;;;;;;7.46;90.14;98632.96;131683;1251;107379;-76
2023/01/09 13:11:51;;;;;;;72.90;38.40;;;;;;;7.48;90.03;98629.50;131662;1246;108567;-79
2023/01/09 13:15:01;;;;;;;56.80;30.20;;;;;;;7.45;90.09;98631.45;131587;1251;107520;-75
2023/01/09 13:18:12;;;;;;;30.50;19.40;;;;;;;7.41;90.05;98632.75;131422;1247;108515;-76
2023/01/09 13:21:18;;;;;;;39.70;25.80;;;;;;;7.40;90.24;98636.08;131479;1251;107529;-81
2023/01/09 13:24:31;;;;;;;43.60;28.60;;;;;;;7.41;90.25;98635.61;131688;1247;107320;-75
2023/01/09 13:27:38;;;;;;;;;;;;;;;7.44;90.25;98631.92;131577;1247;107487;-77
2023/01/09 13:31:03;;;;;;;33.00;21.90;;;;;;;7.46;90.27;98625.46;131566;1251;108608;-77
2023/01/09 13:34:14;;;;;;;30.10;20.80;;;;;;;7.46;90.34;98626.42;131427;1250;107434;-77
2023/01/09 13:37:25;;;;;;;27.10;18.20;;;;;;;7.45;90.25;98626.20;131556;1247;107629;-77
2023/01/09 13:40:33;;;;;;;24.80;17.30;;;;;;;7.43;90.36;98622.46;131455;1247;107445;-72
2023/01/09 13:44:00;;;;;;;26.50;18.90;;;;;;;7.44;90.35;98625.18;131414;1252;108694;-74
2023/01/09 13:47:16;;;;;;;25.80;18.80;;;;;;;7.49;90.52;98622.00;131541;1250;106406;-74
2023/01/09 13:50:27;;;;;;;27.90;20.00;;;;;;;7.54;90.42;98623.44;131346;1253;107388;-75
2023/01/09 13:53:47;;;;;;;27.60;19.90;;;;;;;7.56;90.31;98627.48;131319;1248;107784;-75
2023/01/09 13:57:25;;;;;;;23.30;16.10;;;;;;;7.54;90.52;98627.83;131435;1259;107539;-75
2023/01/09 14:00:50;;;;;;;23.10;15.50;;;;;;;7.53;90.60;98629.36;131450;1251;107817;-75
2023/01/09 14:04:29;;;;;;;26.00;18.50;;;;;;;7.55;90.69;98630.73;131396;1250;107529;-76
2023/01/09 14:07:35;;;;;;;28.60;21.60;;;;;;;7.59;90.62;98628.85;131479;1251;107613;-75
2023/01/09 14:10:50;;;;;;;28.50;18.50;;;;;;;7.62;90.80;98631.30;131509;1251;107242;-75
2023/01/09 14:14:05;;;;;;;27.60;19.90;;;;;;;7.64;90.55;98632.55;131389;1251;107414;-76
2023/01/09 14:17:23;;;;;;;27.50;19.90;;;;;;;7.63;90.58;98638.33;131453;1247;107478;-75
2023/01/09 14:20:36;;;;;;;24.60;16.70;;;;;;;7.60;90.69;98645.18;131419;1248;107613;-75
2023/01/09 14:23:50;;;;;;;22.30;15.90;;;;;;;7.58;90.85;98642.36;131404;1252;107540;-75
2023/01/09 14:26:58;;;;;;;25.60;18.50;;;;;;;7.58;90.85;98643.63;131496;1247;107335;-75
2023/01/09 14:33:38;;;;;;;26.90;18.40;;;;;;;7.67;90.96;98655.92;126980;1304;635959;-75
2023/01/09 14:36:45;;;;;;;24.70;17.70;;;;;;;7.67;91.01;98652.25;130114;1266;107447;-75